sensor_id;sensor_type;location;lat;lon;timestamp;pressure;altitude;pressure_sealevel;temperature;humidity
46574;BME280;32299;53.366;-1.544;2022-07-30T00:01:56;99123.98;;;19.46;40.10
46574;BME280;32299;53.366;-1.544;2022-07-30T00:04:22;99124.21;;;19.32;40.76
46574;BME280;32299;53.366;-1.544;2022-07-30T00:06:49;99124.60;;;19.52;40.31
46574;BME280;32299;53.366;-1.544;2022-07-30T00:09:17;99126.85;;;19.43;40.22
46574;BME280;32299;53.366;-1.544;2022-07-30T00:11:44;99122.16;;;19.49;40.14
46574;BME280;32299;53.366;-1.544;2022-07-30T00:14:11;99116.07;;;19.32;40.43
46574;BME280;32299;53.366;-1.544;2022-07-30T00:16:38;99111.09;;;19.51;40.00
46574;BME280;32299;53.366;-1.544;2022-07-30T00:19:05;99109.44;;;18.74;41.98
46574;BME280;32299;53.366;-1.544;2022-07-30T00:21:32;99109.54;;;18.73;42.62
46574;BME280;32299;53.366;-1.544;2022-07-30T00:24:00;99109.52;;;19.06;40.63
46574;BME280;32299;53.366;-1.544;2022-07-30T00:26:27;99109.79;;;19.16;40.65
46574;BME280;32299;53.366;-1.544;2022-07-30T00:28:54;99108.86;;;19.48;40.85
46574;BME280;32299;53.366;-1.544;2022-07-30T00:31:21;99107.76;;;19.20;41.28
46574;BME280;32299;53.366;-1.544;2022-07-30T00:33:48;99106.22;;;18.80;41.94
46574;BME280;32299;53.366;-1.544;2022-07-30T00:36:15;99104.04;;;19.60;40.79
46574;BME280;32299;53.366;-1.544;2022-07-30T00:38:41;99099.24;;;19.61;40.52
46574;BME280;32299;53.366;-1.544;2022-07-30T00:41:08;99097.38;;;19.70;39.89
46574;BME280;32299;53.366;-1.544;2022-07-30T00:43:35;99086.04;;;19.50;39.87
46574;BME280;32299;53.366;-1.544;2022-07-30T00:46:02;99082.53;;;19.79;40.44
46574;BME280;32299;53.366;-1.544;2022-07-30T00:48:29;99084.16;;;18.55;42.32
46574;BME280;32299;53.366;-1.544;2022-07-30T00:50:57;99083.68;;;19.34;40.53
46574;BME280;32299;53.366;-1.544;2022-07-30T00:53:24;99085.25;;;17.90;43.39
46574;BME280;32299;53.366;-1.544;2022-07-30T00:55:51;99077.49;;;19.32;41.64
46574;BME280;32299;53.366;-1.544;2022-07-30T00:58:18;99074.83;;;19.24;40.91
46574;BME280;32299;53.366;-1.544;2022-07-30T01:00:45;99068.16;;;19.36;40.76
46574;BME280;32299;53.366;-1.544;2022-07-30T01:03:12;99069.01;;;18.48;43.32
46574;BME280;32299;53.366;-1.544;2022-07-30T01:05:39;99067.59;;;18.23;43.08
46574;BME280;32299;53.366;-1.544;2022-07-30T01:08:06;99066.94;;;18.51;42.98
46574;BME280;32299;53.366;-1.544;2022-07-30T01:10:33;99067.53;;;17.39;45.05
46574;BME280;32299;53.366;-1.544;2022-07-30T01:13:00;99065.24;;;17.98;44.64
46574;BME280;32299;53.366;-1.544;2022-07-30T01:15:29;99061.72;;;17.89;44.90
46574;BME280;32299;53.366;-1.544;2022-07-30T01:17:59;99066.41;;;17.40;45.94
46574;BME280;32299;53.366;-1.544;2022-07-30T01:20:31;99060.61;;;18.66;43.55
46574;BME280;32299;53.366;-1.544;2022-07-30T01:23:07;99056.62;;;18.70;43.53
46574;BME280;32299;53.366;-1.544;2022-07-30T01:25:47;99054.17;;;19.05;42.81
46574;BME280;32299;53.366;-1.544;2022-07-30T01:28:20;99052.86;;;19.30;42.23
46574;BME280;32299;53.366;-1.544;2022-07-30T01:30:49;99051.15;;;19.37;41.96
46574;BME280;32299;53.366;-1.544;2022-07-30T01:33:21;99051.60;;;19.72;41.71
46574;BME280;32299;53.366;-1.544;2022-07-30T01:35:50;99052.86;;;19.62;41.40
46574;BME280;32299;53.366;-1.544;2022-07-30T01:38:21;99049.36;;;19.71;41.28
46574;BME280;32299;53.366;-1.544;2022-07-30T01:40:50;99043.98;;;19.82;40.97
46574;BME280;32299;53.366;-1.544;2022-07-30T01:43:20;99041.50;;;19.74;41.03
46574;BME280;32299;53.366;-1.544;2022-07-30T01:45:49;99045.82;;;19.85;40.88
46574;BME280;32299;53.366;-1.544;2022-07-30T01:48:20;99050.30;;;19.64;41.86
46574;BME280;32299;53.366;-1.544;2022-07-30T01:50:51;99047.34;;;19.82;41.50
46574;BME280;32299;53.366;-1.544;2022-07-30T01:53:22;99042.90;;;20.01;41.14
46574;BME280;32299;53.366;-1.544;2022-07-30T01:55:52;99041.15;;;20.00;41.05
46574;BME280;32299;53.366;-1.544;2022-07-30T01:58:23;99037.16;;;19.90;40.75
46574;BME280;32299;53.366;-1.544;2022-07-30T02:00:54;99034.40;;;19.95;40.65
46574;BME280;32299;53.366;-1.544;2022-07-30T02:03:22;99033.82;;;19.90;41.22
46574;BME280;32299;53.366;-1.544;2022-07-30T02:05:54;99028.52;;;19.27;42.13
46574;BME280;32299;53.366;-1.544;2022-07-30T02:08:28;99027.05;;;19.32;42.46
46574;BME280;32299;53.366;-1.544;2022-07-30T02:11:03;99021.44;;;19.32;43.18
46574;BME280;32299;53.366;-1.544;2022-07-30T02:14:28;99024.25;;;20.08;43.35
46574;BME280;32299;53.366;-1.544;2022-07-30T02:16:57;99025.63;;;18.11;45.27
46574;BME280;32299;53.366;-1.544;2022-07-30T02:19:32;99022.72;;;18.88;43.90
46574;BME280;32299;53.366;-1.544;2022-07-30T02:22:03;99021.02;;;18.90;44.35
46574;BME280;32299;53.366;-1.544;2022-07-30T02:24:32;99019.28;;;19.00;44.10
46574;BME280;32299;53.366;-1.544;2022-07-30T02:27:03;99019.64;;;18.77;43.51
46574;BME280;32299;53.366;-1.544;2022-07-30T02:29:34;99018.09;;;18.14;46.08
46574;BME280;32299;53.366;-1.544;2022-07-30T02:32:05;99020.78;;;18.34;44.99
46574;BME280;32299;53.366;-1.544;2022-07-30T02:34:36;99017.01;;;17.68;47.28
46574;BME280;32299;53.366;-1.544;2022-07-30T02:37:06;99015.13;;;17.10;48.49
46574;BME280;32299;53.366;-1.544;2022-07-30T02:39:35;99014.30;;;18.22;46.14
46574;BME280;32299;53.366;-1.544;2022-07-30T02:42:04;99016.05;;;18.42;46.41
46574;BME280;32299;53.366;-1.544;2022-07-30T02:44:33;99019.35;;;18.40;46.28
46574;BME280;32299;53.366;-1.544;2022-07-30T02:47:02;99015.58;;;17.77;46.94
46574;BME280;32299;53.366;-1.544;2022-07-30T02:49:32;99012.47;;;17.93;47.09
46574;BME280;32299;53.366;-1.544;2022-07-30T02:52:04;99010.33;;;17.55;47.57
46574;BME280;32299;53.366;-1.544;2022-07-30T02:54:32;99003.83;;;17.77;46.19
46574;BME280;32299;53.366;-1.544;2022-07-30T02:57:01;99004.22;;;18.05;46.69
46574;BME280;32299;53.366;-1.544;2022-07-30T02:59:29;99005.94;;;18.52;45.30
46574;BME280;32299;53.366;-1.544;2022-07-30T03:01:58;99005.83;;;17.85;47.29
46574;BME280;32299;53.366;-1.544;2022-07-30T03:04:27;99004.61;;;18.27;46.14
46574;BME280;32299;53.366;-1.544;2022-07-30T03:06:55;99002.04;;;18.58;45.56
46574;BME280;32299;53.366;-1.544;2022-07-30T03:09:24;98998.99;;;18.32;45.70
46574;BME280;32299;53.366;-1.544;2022-07-30T03:11:52;98996.58;;;18.57;44.96
46574;BME280;32299;53.366;-1.544;2022-07-30T03:14:22;98990.64;;;18.59;46.65
46574;BME280;32299;53.366;-1.544;2022-07-30T03:16:54;98986.33;;;18.79;46.87
46574;BME280;32299;53.366;-1.544;2022-07-30T03:19:22;98983.27;;;18.63;45.78
46574;BME280;32299;53.366;-1.544;2022-07-30T03:21:53;98982.15;;;18.93;45.69
46574;BME280;32299;53.366;-1.544;2022-07-30T03:24:23;98981.31;;;18.57;45.75
46574;BME280;32299;53.366;-1.544;2022-07-30T03:26:51;98977.92;;;18.50;45.35
46574;BME280;32299;53.366;-1.544;2022-07-30T03:29:22;98982.47;;;18.53;45.72
46574;BME280;32299;53.366;-1.544;2022-07-30T03:31:50;98984.29;;;18.89;45.26
46574;BME280;32299;53.366;-1.544;2022-07-30T03:34:19;98984.00;;;18.93;44.75
46574;BME280;32299;53.366;-1.544;2022-07-30T03:36:48;98981.00;;;19.11;44.42
46574;BME280;32299;53.366;-1.544;2022-07-30T03:39:17;98977.63;;;19.07;44.08
46574;BME280;32299;53.366;-1.544;2022-07-30T03:41:45;98974.07;;;19.45;43.41
46574;BME280;32299;53.366;-1.544;2022-07-30T03:44:14;98975.51;;;18.98;44.09
46574;BME280;32299;53.366;-1.544;2022-07-30T03:46:42;98982.97;;;19.07;45.14
46574;BME280;32299;53.366;-1.544;2022-07-30T03:49:11;98985.84;;;18.97;45.23
46574;BME280;32299;53.366;-1.544;2022-07-30T03:51:40;98981.97;;;19.03;44.64
46574;BME280;32299;53.366;-1.544;2022-07-30T03:54:09;98981.90;;;18.40;45.31
46574;BME280;32299;53.366;-1.544;2022-07-30T03:56:37;98980.19;;;18.89;45.06
46574;BME280;32299;53.366;-1.544;2022-07-30T03:59:06;98975.78;;;19.12;43.76
46574;BME280;32299;53.366;-1.544;2022-07-30T04:01:33;98976.15;;;19.48;43.66
46574;BME280;32299;53.366;-1.544;2022-07-30T04:04:05;98974.46;;;19.33;42.87
46574;BME280;32299;53.366;-1.544;2022-07-30T04:06:32;98976.70;;;19.62;42.56
46574;BME280;32299;53.366;-1.544;2022-07-30T04:09:00;98972.13;;;19.94;42.67
46574;BME280;32299;53.366;-1.544;2022-07-30T04:11:27;98971.02;;;19.97;42.34
46574;BME280;32299;53.366;-1.544;2022-07-30T04:13:54;98969.94;;;19.55;43.56
46574;BME280;32299;53.366;-1.544;2022-07-30T04:16:28;98975.57;;;19.53;42.79
46574;BME280;32299;53.366;-1.544;2022-07-30T04:18:58;98977.86;;;19.82;43.00
46574;BME280;32299;53.366;-1.544;2022-07-30T04:21:27;98974.79;;;19.82;42.95
46574;BME280;32299;53.366;-1.544;2022-07-30T04:23:57;98973.08;;;19.92;42.25
46574;BME280;32299;53.366;-1.544;2022-07-30T04:26:26;98971.31;;;19.75;41.88
46574;BME280;32299;53.366;-1.544;2022-07-30T04:28:53;98971.90;;;20.08;41.59
46574;BME280;32299;53.366;-1.544;2022-07-30T04:31:21;98966.43;;;20.10;41.53
46574;BME280;32299;53.366;-1.544;2022-07-30T04:33:48;98965.05;;;20.15;41.41
46574;BME280;32299;53.366;-1.544;2022-07-30T04:36:16;98964.82;;;19.93;41.44
46574;BME280;32299;53.366;-1.544;2022-07-30T04:38:43;98962.42;;;19.98;41.42
46574;BME280;32299;53.366;-1.544;2022-07-30T04:41:11;98959.88;;;19.93;41.61
46574;BME280;32299;53.366;-1.544;2022-07-30T04:43:38;98952.75;;;20.45;41.47
46574;BME280;32299;53.366;-1.544;2022-07-30T04:46:05;98952.54;;;19.94;41.84
46574;BME280;32299;53.366;-1.544;2022-07-30T04:48:31;98960.95;;;19.94;41.68
46574;BME280;32299;53.366;-1.544;2022-07-30T04:51:01;98961.88;;;20.09;41.90
46574;BME280;32299;53.366;-1.544;2022-07-30T04:53:31;98956.29;;;20.07;42.59
46574;BME280;32299;53.366;-1.544;2022-07-30T04:56:05;98954.63;;;20.05;41.87
46574;BME280;32299;53.366;-1.544;2022-07-30T04:58:34;98952.36;;;19.91;41.61
46574;BME280;32299;53.366;-1.544;2022-07-30T05:01:02;98957.54;;;19.79;42.64
46574;BME280;32299;53.366;-1.544;2022-07-30T05:03:30;98958.53;;;19.95;41.73
46574;BME280;32299;53.366;-1.544;2022-07-30T05:06:00;98955.33;;;19.96;41.59
46574;BME280;32299;53.366;-1.544;2022-07-30T05:08:28;98957.91;;;19.80;42.28
46574;BME280;32299;53.366;-1.544;2022-07-30T05:10:55;98954.41;;;19.60;43.34
46574;BME280;32299;53.366;-1.544;2022-07-30T05:13:23;98955.50;;;19.36;44.40
46574;BME280;32299;53.366;-1.544;2022-07-30T05:15:50;98953.83;;;19.56;43.89
46574;BME280;32299;53.366;-1.544;2022-07-30T05:18:17;98965.26;;;18.29;45.85
46574;BME280;32299;53.366;-1.544;2022-07-30T05:20:44;98968.36;;;18.33;45.91
46574;BME280;32299;53.366;-1.544;2022-07-30T05:23:12;98970.99;;;18.55;45.97
46574;BME280;32299;53.366;-1.544;2022-07-30T05:25:39;98970.94;;;18.26;45.56
46574;BME280;32299;53.366;-1.544;2022-07-30T05:28:06;98969.87;;;17.90;46.45
46574;BME280;32299;53.366;-1.544;2022-07-30T05:30:34;98970.57;;;17.72;47.31
46574;BME280;32299;53.366;-1.544;2022-07-30T05:33:01;98970.65;;;18.51;45.93
46574;BME280;32299;53.366;-1.544;2022-07-30T05:35:29;98969.63;;;19.06;45.51
46574;BME280;32299;53.366;-1.544;2022-07-30T05:37:56;98970.31;;;19.13;45.07
46574;BME280;32299;53.366;-1.544;2022-07-30T05:40:24;98968.26;;;19.39;43.91
46574;BME280;32299;53.366;-1.544;2022-07-30T05:42:51;98972.66;;;18.99;45.22
46574;BME280;32299;53.366;-1.544;2022-07-30T05:45:18;98968.62;;;19.15;45.04
46574;BME280;32299;53.366;-1.544;2022-07-30T05:47:45;98966.88;;;19.30;44.50
46574;BME280;32299;53.366;-1.544;2022-07-30T05:50:12;98968.57;;;19.08;44.07
46574;BME280;32299;53.366;-1.544;2022-07-30T05:52:39;98965.68;;;19.15;44.13
46574;BME280;32299;53.366;-1.544;2022-07-30T05:55:08;98962.85;;;19.14;43.75
46574;BME280;32299;53.366;-1.544;2022-07-30T05:57:36;98966.57;;;19.65;43.55
46574;BME280;32299;53.366;-1.544;2022-07-30T06:00:03;98963.89;;;19.42;44.34
46574;BME280;32299;53.366;-1.544;2022-07-30T06:02:31;98968.24;;;18.43;46.96
46574;BME280;32299;53.366;-1.544;2022-07-30T06:04:58;98958.84;;;19.25;44.70
46574;BME280;32299;53.366;-1.544;2022-07-30T06:07:25;98952.47;;;19.20;45.62
46574;BME280;32299;53.366;-1.544;2022-07-30T06:09:52;98950.96;;;18.71;45.99
46574;BME280;32299;53.366;-1.544;2022-07-30T06:12:19;98946.38;;;17.85;49.56
46574;BME280;32299;53.366;-1.544;2022-07-30T06:14:46;98947.49;;;17.77;49.55
46574;BME280;32299;53.366;-1.544;2022-07-30T06:17:13;98949.78;;;17.23;49.77
46574;BME280;32299;53.366;-1.544;2022-07-30T06:19:40;98947.78;;;17.55;49.75
46574;BME280;32299;53.366;-1.544;2022-07-30T06:22:08;98951.47;;;18.75;47.00
46574;BME280;32299;53.366;-1.544;2022-07-30T06:24:36;98954.05;;;18.79;46.96
46574;BME280;32299;53.366;-1.544;2022-07-30T06:27:03;98949.40;;;18.23;47.53
46574;BME280;32299;53.366;-1.544;2022-07-30T06:29:31;98946.61;;;18.55;46.41
46574;BME280;32299;53.366;-1.544;2022-07-30T06:31:58;98946.68;;;18.06;48.82
46574;BME280;32299;53.366;-1.544;2022-07-30T06:34:25;98939.41;;;18.63;46.77
46574;BME280;32299;53.366;-1.544;2022-07-30T06:36:52;98939.21;;;18.34;47.50
46574;BME280;32299;53.366;-1.544;2022-07-30T06:39:19;98937.62;;;18.97;46.70
46574;BME280;32299;53.366;-1.544;2022-07-30T06:41:47;98931.83;;;18.08;49.09
46574;BME280;32299;53.366;-1.544;2022-07-30T06:44:14;98936.43;;;18.07;48.53
46574;BME280;32299;53.366;-1.544;2022-07-30T06:46:41;98932.98;;;18.38;48.18
46574;BME280;32299;53.366;-1.544;2022-07-30T06:49:08;98934.29;;;18.30;48.24
46574;BME280;32299;53.366;-1.544;2022-07-30T06:51:35;98941.14;;;18.68;47.81
46574;BME280;32299;53.366;-1.544;2022-07-30T06:54:02;98951.64;;;18.32;48.44
46574;BME280;32299;53.366;-1.544;2022-07-30T06:56:29;98955.27;;;18.14;49.26
46574;BME280;32299;53.366;-1.544;2022-07-30T06:58:56;98955.63;;;18.65;47.91
46574;BME280;32299;53.366;-1.544;2022-07-30T07:01:23;98959.85;;;18.70;47.91
46574;BME280;32299;53.366;-1.544;2022-07-30T07:03:50;98972.74;;;18.92;47.73
46574;BME280;32299;53.366;-1.544;2022-07-30T07:06:17;98978.64;;;18.48;48.54
46574;BME280;32299;53.366;-1.544;2022-07-30T07:08:44;98972.67;;;18.63;48.68
46574;BME280;32299;53.366;-1.544;2022-07-30T07:11:11;98976.57;;;18.08;50.39
46574;BME280;32299;53.366;-1.544;2022-07-30T07:13:38;98976.70;;;18.73;48.89
46574;BME280;32299;53.366;-1.544;2022-07-30T07:16:05;98973.44;;;18.16;50.42
46574;BME280;32299;53.366;-1.544;2022-07-30T07:18:32;98969.06;;;18.58;49.12
46574;BME280;32299;53.366;-1.544;2022-07-30T07:20:59;98975.03;;;18.16;50.74
46574;BME280;32299;53.366;-1.544;2022-07-30T07:23:26;98965.89;;;18.01;51.90
46574;BME280;32299;53.366;-1.544;2022-07-30T07:25:54;98957.08;;;18.31;50.08
46574;BME280;32299;53.366;-1.544;2022-07-30T07:28:21;98953.97;;;18.42;50.03
46574;BME280;32299;53.366;-1.544;2022-07-30T07:30:49;98955.15;;;18.26;51.14
46574;BME280;32299;53.366;-1.544;2022-07-30T07:33:16;98956.19;;;18.56;49.41
46574;BME280;32299;53.366;-1.544;2022-07-30T07:35:43;98958.25;;;18.47;50.24
46574;BME280;32299;53.366;-1.544;2022-07-30T07:38:10;98958.51;;;18.03;51.73
46574;BME280;32299;53.366;-1.544;2022-07-30T07:40:37;98957.85;;;17.94;51.93
46574;BME280;32299;53.366;-1.544;2022-07-30T07:43:04;98951.41;;;17.31;54.81
46574;BME280;32299;53.366;-1.544;2022-07-30T07:45:31;98951.58;;;17.95;51.57
46574;BME280;32299;53.366;-1.544;2022-07-30T07:47:58;98956.01;;;18.70;50.18
46574;BME280;32299;53.366;-1.544;2022-07-30T07:50:26;98957.61;;;18.28;51.95
46574;BME280;32299;53.366;-1.544;2022-07-30T07:52:53;98956.17;;;18.42;51.87
46574;BME280;32299;53.366;-1.544;2022-07-30T07:55:20;98953.88;;;18.89;49.54
46574;BME280;32299;53.366;-1.544;2022-07-30T07:57:48;98949.59;;;18.88;49.15
46574;BME280;32299;53.366;-1.544;2022-07-30T08:00:16;98956.17;;;18.58;50.70
46574;BME280;32299;53.366;-1.544;2022-07-30T08:02:43;98956.71;;;18.89;49.33
46574;BME280;32299;53.366;-1.544;2022-07-30T08:05:11;98959.69;;;18.96;49.26
46574;BME280;32299;53.366;-1.544;2022-07-30T08:07:39;98959.79;;;19.88;47.91
46574;BME280;32299;53.366;-1.544;2022-07-30T08:10:08;98956.71;;;19.47;48.98
46574;BME280;32299;53.366;-1.544;2022-07-30T08:12:36;98956.35;;;19.23;48.77
46574;BME280;32299;53.366;-1.544;2022-07-30T08:15:04;98952.27;;;19.86;47.64
46574;BME280;32299;53.366;-1.544;2022-07-30T08:17:32;98956.28;;;18.84;49.46
46574;BME280;32299;53.366;-1.544;2022-07-30T08:20:00;98956.25;;;18.94;49.93
46574;BME280;32299;53.366;-1.544;2022-07-30T08:22:27;98954.90;;;18.95;49.41
46574;BME280;32299;53.366;-1.544;2022-07-30T08:24:54;98953.17;;;18.97;49.21
46574;BME280;32299;53.366;-1.544;2022-07-30T08:27:21;98950.70;;;19.13;48.89
46574;BME280;32299;53.366;-1.544;2022-07-30T08:29:48;98947.60;;;19.17;48.56
46574;BME280;32299;53.366;-1.544;2022-07-30T08:32:15;98951.79;;;19.09;48.71
46574;BME280;32299;53.366;-1.544;2022-07-30T08:34:42;98948.28;;;19.58;48.28
46574;BME280;32299;53.366;-1.544;2022-07-30T08:37:09;98947.36;;;19.59;48.18
46574;BME280;32299;53.366;-1.544;2022-07-30T08:39:36;98948.56;;;19.43;49.23
46574;BME280;32299;53.366;-1.544;2022-07-30T08:42:04;98947.05;;;19.94;47.06
46574;BME280;32299;53.366;-1.544;2022-07-30T08:44:32;98943.99;;;19.49;48.86
46574;BME280;32299;53.366;-1.544;2022-07-30T08:47:01;98942.44;;;19.42;49.37
46574;BME280;32299;53.366;-1.544;2022-07-30T08:49:28;98940.55;;;19.15;49.68
46574;BME280;32299;53.366;-1.544;2022-07-30T08:51:57;98939.42;;;19.34;50.60
46574;BME280;32299;53.366;-1.544;2022-07-30T08:54:25;98943.39;;;19.61;48.69
46574;BME280;32299;53.366;-1.544;2022-07-30T08:56:53;98949.44;;;19.02;50.91
46574;BME280;32299;53.366;-1.544;2022-07-30T08:59:22;98941.74;;;19.56;49.25
46574;BME280;32299;53.366;-1.544;2022-07-30T09:01:50;98939.18;;;20.50;46.93
46574;BME280;32299;53.366;-1.544;2022-07-30T09:04:18;98945.00;;;19.45;49.34
46574;BME280;32299;53.366;-1.544;2022-07-30T09:06:45;98949.41;;;19.44;49.12
46574;BME280;32299;53.366;-1.544;2022-07-30T09:09:12;98947.00;;;20.17;47.59
46574;BME280;32299;53.366;-1.544;2022-07-30T09:11:39;98945.88;;;20.98;46.41
46574;BME280;32299;53.366;-1.544;2022-07-30T09:14:08;98954.31;;;19.71;48.90
46574;BME280;32299;53.366;-1.544;2022-07-30T09:16:36;98956.85;;;19.97;49.18
46574;BME280;32299;53.366;-1.544;2022-07-30T09:19:14;98954.49;;;19.79;49.78
46574;BME280;32299;53.366;-1.544;2022-07-30T09:21:41;98951.19;;;20.37;47.95
46574;BME280;32299;53.366;-1.544;2022-07-30T09:24:10;98952.35;;;21.04;47.02
46574;BME280;32299;53.366;-1.544;2022-07-30T09:26:56;98960.52;;;20.83;47.58
46574;BME280;32299;53.366;-1.544;2022-07-30T09:29:25;98957.04;;;20.79;47.14
46574;BME280;32299;53.366;-1.544;2022-07-30T09:31:54;98965.65;;;19.75;50.04
46574;BME280;32299;53.366;-1.544;2022-07-30T09:34:23;98963.34;;;19.64;49.64
46574;BME280;32299;53.366;-1.544;2022-07-30T09:36:51;98961.32;;;20.20;48.44
46574;BME280;32299;53.366;-1.544;2022-07-30T09:39:28;98963.06;;;19.89;49.34
46574;BME280;32299;53.366;-1.544;2022-07-30T09:41:55;98962.04;;;19.91;50.06
46574;BME280;32299;53.366;-1.544;2022-07-30T09:44:23;98955.64;;;20.27;49.23
46574;BME280;32299;53.366;-1.544;2022-07-30T09:46:51;98955.41;;;20.58;47.54
46574;BME280;32299;53.366;-1.544;2022-07-30T09:49:19;98956.40;;;20.43;47.91
46574;BME280;32299;53.366;-1.544;2022-07-30T09:51:48;98959.64;;;21.29;48.11
46574;BME280;32299;53.366;-1.544;2022-07-30T09:54:16;98963.44;;;20.17;48.51
46574;BME280;32299;53.366;-1.544;2022-07-30T09:56:43;98963.09;;;19.60;51.20
46574;BME280;32299;53.366;-1.544;2022-07-30T09:59:25;98963.68;;;20.83;48.30
46574;BME280;32299;53.366;-1.544;2022-07-30T10:01:54;98969.43;;;19.93;50.52
46574;BME280;32299;53.366;-1.544;2022-07-30T10:04:23;98969.74;;;20.18;49.48
46574;BME280;32299;53.366;-1.544;2022-07-30T10:06:51;98974.46;;;20.50;49.04
46574;BME280;32299;53.366;-1.544;2022-07-30T10:09:28;98976.46;;;20.52;48.96
46574;BME280;32299;53.366;-1.544;2022-07-30T10:11:58;98971.47;;;20.23;49.91
46574;BME280;32299;53.366;-1.544;2022-07-30T10:14:29;98974.54;;;21.10;47.41
46574;BME280;32299;53.366;-1.544;2022-07-30T10:16:57;98977.01;;;20.55;48.78
46574;BME280;32299;53.366;-1.544;2022-07-30T10:19:24;98978.82;;;20.61;48.91
46574;BME280;32299;53.366;-1.544;2022-07-30T10:21:52;98986.26;;;19.84;50.60
46574;BME280;32299;53.366;-1.544;2022-07-30T10:24:20;98989.25;;;19.88;50.53
46574;BME280;32299;53.366;-1.544;2022-07-30T10:26:47;98991.17;;;20.22;50.79
46574;BME280;32299;53.366;-1.544;2022-07-30T10:29:15;98988.59;;;21.09;47.68
46574;BME280;32299;53.366;-1.544;2022-07-30T10:31:43;98991.84;;;20.22;49.37
46574;BME280;32299;53.366;-1.544;2022-07-30T10:34:12;98990.36;;;20.13;49.23
46574;BME280;32299;53.366;-1.544;2022-07-30T10:36:42;98989.45;;;20.64;48.98
46574;BME280;32299;53.366;-1.544;2022-07-30T10:39:14;98984.63;;;20.06;49.46
46574;BME280;32299;53.366;-1.544;2022-07-30T10:41:46;98987.02;;;20.85;48.30
46574;BME280;32299;53.366;-1.544;2022-07-30T10:44:32;98991.81;;;20.94;48.34
46574;BME280;32299;53.366;-1.544;2022-07-30T10:47:05;98989.44;;;20.51;49.35
46574;BME280;32299;53.366;-1.544;2022-07-30T10:49:33;98988.96;;;20.45;48.60
46574;BME280;32299;53.366;-1.544;2022-07-30T10:52:01;98979.24;;;21.15;48.00
46574;BME280;32299;53.366;-1.544;2022-07-30T10:54:39;98980.66;;;21.36;47.11
46574;BME280;32299;53.366;-1.544;2022-07-30T10:57:09;98979.81;;;21.09;47.70
46574;BME280;32299;53.366;-1.544;2022-07-30T11:00:08;98984.53;;;20.98;48.22
46574;BME280;32299;53.366;-1.544;2022-07-30T11:02:36;98981.07;;;20.43;50.05
46574;BME280;32299;53.366;-1.544;2022-07-30T11:05:28;98978.49;;;21.17;48.12
46574;BME280;32299;53.366;-1.544;2022-07-30T11:08:27;98980.76;;;20.16;50.57
46574;BME280;32299;53.366;-1.544;2022-07-30T11:10:55;98986.15;;;20.57;50.89
46574;BME280;32299;53.366;-1.544;2022-07-30T11:13:48;98989.01;;;20.57;50.83
46574;BME280;32299;53.366;-1.544;2022-07-30T11:16:17;98993.66;;;19.99;52.64
46574;BME280;32299;53.366;-1.544;2022-07-30T11:19:03;98994.02;;;18.95;55.33
46574;BME280;32299;53.366;-1.544;2022-07-30T11:21:31;98990.30;;;19.43;53.29
46574;BME280;32299;53.366;-1.544;2022-07-30T11:23:59;98987.23;;;20.85;51.02
46574;BME280;32299;53.366;-1.544;2022-07-30T11:26:49;98987.55;;;19.83;52.06
46574;BME280;32299;53.366;-1.544;2022-07-30T11:29:34;98981.20;;;20.22;51.69
46574;BME280;32299;53.366;-1.544;2022-07-30T11:32:34;98980.99;;;21.86;49.34
46574;BME280;32299;53.366;-1.544;2022-07-30T11:35:18;98982.39;;;20.74;50.67
46574;BME280;32299;53.366;-1.544;2022-07-30T11:38:04;98983.43;;;21.35;49.03
46574;BME280;32299;53.366;-1.544;2022-07-30T11:40:33;98976.36;;;21.15;49.22
46574;BME280;32299;53.366;-1.544;2022-07-30T11:43:19;98973.73;;;21.55;48.04
46574;BME280;32299;53.366;-1.544;2022-07-30T11:45:48;98972.51;;;21.93;47.75
46574;BME280;32299;53.366;-1.544;2022-07-30T11:48:17;98977.72;;;20.46;51.64
46574;BME280;32299;53.366;-1.544;2022-07-30T11:50:46;98980.19;;;21.66;48.79
46574;BME280;32299;53.366;-1.544;2022-07-30T11:53:17;98982.82;;;21.87;47.87
46574;BME280;32299;53.366;-1.544;2022-07-30T11:55:51;98979.47;;;20.55;51.17
46574;BME280;32299;53.366;-1.544;2022-07-30T11:58:25;98985.57;;;21.74;47.97
46574;BME280;32299;53.366;-1.544;2022-07-30T12:00:54;98980.83;;;21.39;50.16
46574;BME280;32299;53.366;-1.544;2022-07-30T12:03:23;98977.74;;;21.42;48.32
46574;BME280;32299;53.366;-1.544;2022-07-30T12:05:51;98973.75;;;20.02;53.52
46574;BME280;32299;53.366;-1.544;2022-07-30T12:08:19;98968.92;;;20.20;52.08
46574;BME280;32299;53.366;-1.544;2022-07-30T12:10:56;98972.57;;;21.29;49.91
46574;BME280;32299;53.366;-1.544;2022-07-30T12:13:23;98970.77;;;21.25;50.98
46574;BME280;32299;53.366;-1.544;2022-07-30T12:15:51;98966.49;;;21.21;50.70
46574;BME280;32299;53.366;-1.544;2022-07-30T12:18:25;98965.21;;;21.30;51.49
46574;BME280;32299;53.366;-1.544;2022-07-30T12:20:55;98966.80;;;21.58;50.60
46574;BME280;32299;53.366;-1.544;2022-07-30T12:23:23;98967.43;;;21.11;50.28
46574;BME280;32299;53.366;-1.544;2022-07-30T12:25:50;98966.11;;;20.18;53.86
46574;BME280;32299;53.366;-1.544;2022-07-30T12:28:22;98969.50;;;20.44;53.06
46574;BME280;32299;53.366;-1.544;2022-07-30T12:30:51;98972.87;;;19.98;53.12
46574;BME280;32299;53.366;-1.544;2022-07-30T12:33:19;98969.53;;;20.35;51.96
46574;BME280;32299;53.366;-1.544;2022-07-30T12:35:48;98969.40;;;19.04;55.08
46574;BME280;32299;53.366;-1.544;2022-07-30T12:38:16;98965.67;;;20.40;53.72
46574;BME280;32299;53.366;-1.544;2022-07-30T12:40:53;98963.55;;;21.43;50.97
46574;BME280;32299;53.366;-1.544;2022-07-30T12:43:54;98958.93;;;22.49;49.17
46574;BME280;32299;53.366;-1.544;2022-07-30T12:46:23;98961.44;;;21.77;49.45
46574;BME280;32299;53.366;-1.544;2022-07-30T12:48:54;98964.55;;;22.03;48.64
46574;BME280;32299;53.366;-1.544;2022-07-30T12:51:23;98969.16;;;21.57;50.28
46574;BME280;32299;53.366;-1.544;2022-07-30T12:53:51;98959.02;;;21.95;47.93
46574;BME280;32299;53.366;-1.544;2022-07-30T12:56:21;98960.62;;;21.32;49.58
46574;BME280;32299;53.366;-1.544;2022-07-30T12:58:48;98959.92;;;21.86;49.64
46574;BME280;32299;53.366;-1.544;2022-07-30T13:01:16;98958.57;;;22.12;47.96
46574;BME280;32299;53.366;-1.544;2022-07-30T13:03:44;98964.22;;;21.20;49.63